createdAt,value
2019-01-27T00:00:27.351Z,-80
2019-01-27T00:02:56.454Z,-74
2019-01-27T00:05:25.561Z,-79
2019-01-27T00:07:54.937Z,-76
2019-01-27T00:10:24.301Z,-77
2019-01-27T00:12:53.381Z,-74
2019-01-27T00:15:22.740Z,-77
2019-01-27T00:17:51.847Z,-77
2019-01-27T00:20:23.180Z,-77
2019-01-27T00:22:54.196Z,-78
2019-01-27T00:25:23.555Z,-77
2019-01-27T00:27:52.903Z,-77
2019-01-27T00:30:24.875Z,-77
2019-01-27T00:32:54.224Z,-77
2019-01-27T00:35:23.716Z,-76
2019-01-27T00:37:53.048Z,-77
2019-01-27T00:40:22.523Z,-77
2019-01-27T00:42:51.697Z,-77
2019-01-27T00:45:21.544Z,-77
2019-01-27T00:47:50.651Z,-77
2019-01-27T00:50:20.568Z,-77
2019-01-27T00:52:50.433Z,-75
2019-01-27T00:55:24.341Z,-75
2019-01-27T00:57:53.416Z,-77
2019-01-27T01:00:27.699Z,-77
2019-01-27T01:02:57.094Z,-77
2019-01-27T01:05:26.524Z,-78
2019-01-27T01:07:55.617Z,-77
2019-01-27T01:10:25.442Z,-77
2019-01-27T01:12:55.292Z,-76
2019-01-27T01:15:24.461Z,-77
2019-01-27T01:17:53.638Z,-75
2019-01-27T01:20:24.130Z,-77
2019-01-27T01:22:53.552Z,-78
2019-01-27T01:25:24.284Z,-78
2019-01-27T01:27:53.785Z,-77
2019-01-27T01:30:32.374Z,-77
2019-01-27T01:33:01.702Z,-77
2019-01-27T01:35:31.083Z,-77
2019-01-27T01:38:00.429Z,-77
2019-01-27T01:40:29.780Z,-75
2019-01-27T01:42:59.182Z,-77
2019-01-27T01:45:33.733Z,-77
2019-01-27T01:48:03.178Z,-77
2019-01-27T01:50:33.137Z,-77
2019-01-27T01:53:02.472Z,-77
2019-01-27T01:55:31.895Z,-77
2019-01-27T01:58:00.969Z,-74
2019-01-27T02:00:30.990Z,-75
2019-01-27T02:03:00.413Z,-77
2019-01-27T02:05:29.676Z,-77
2019-01-27T02:07:59.015Z,-77
2019-01-27T02:10:28.400Z,-77
2019-01-27T02:12:57.460Z,-75
2019-01-27T02:15:40.364Z,-77
2019-01-27T02:18:09.436Z,-77
2019-01-27T02:20:38.544Z,-75
2019-01-27T02:23:07.697Z,-77
2019-01-27T02:25:36.782Z,-76
2019-01-27T02:28:05.932Z,-77
2019-01-27T02:30:35.269Z,-74
2019-01-27T02:33:04.842Z,-77
2019-01-27T02:35:33.941Z,-75
2019-01-27T02:38:03.370Z,-76
2019-01-27T02:40:32.722Z,-77
2019-01-27T02:43:01.926Z,-77
2019-01-27T02:45:31.236Z,-77
2019-01-27T02:48:00.342Z,-75
2019-01-27T02:50:29.697Z,-77
2019-01-27T02:53:01.598Z,-77
2019-01-27T02:55:30.955Z,-75
2019-01-27T02:58:00.060Z,-73
2019-01-27T03:00:29.417Z,-77
2019-01-27T03:02:58.545Z,-77
2019-01-27T03:05:45.958Z,-77
2019-01-27T03:08:15.373Z,-77
2019-01-27T03:10:44.449Z,-76
2019-01-27T03:13:13.530Z,-74
2019-01-27T03:15:42.612Z,-75
2019-01-27T03:18:11.795Z,-77
2019-01-27T03:20:40.903Z,-77
2019-01-27T03:23:09.977Z,-77
2019-01-27T03:25:39.060Z,-77
2019-01-27T03:28:08.173Z,-77
2019-01-27T03:30:37.282Z,-74
2019-01-27T03:33:06.645Z,-77
2019-01-27T03:35:49.209Z,-77
2019-01-27T03:38:18.543Z,-77
2019-01-27T03:40:47.871Z,-77
2019-01-27T03:43:16.957Z,-77
2019-01-27T03:45:46.288Z,-77
2019-01-27T03:48:15.372Z,-77
2019-01-27T03:50:44.448Z,-77
2019-01-27T03:53:13.573Z,-76
2019-01-27T03:55:43.284Z,-77
2019-01-27T03:58:12.631Z,-77
2019-01-27T04:00:41.704Z,-75
2019-01-27T04:03:11.102Z,-78
2019-01-27T04:05:40.425Z,-77
2019-01-27T04:08:09.622Z,-77
2019-01-27T04:10:39.309Z,-77
2019-01-27T04:13:08.658Z,-77
2019-01-27T04:15:37.834Z,-77
2019-01-27T04:18:07.000Z,-77
2019-01-27T04:20:36.082Z,-77
2019-01-27T04:23:05.196Z,-75
2019-01-27T04:25:34.304Z,-75
2019-01-27T04:28:03.719Z,-77
2019-01-27T04:30:34.474Z,-77
2019-01-27T04:33:04.058Z,-77
2019-01-27T04:35:33.418Z,-77
2019-01-27T04:38:02.496Z,-75
2019-01-27T04:40:31.857Z,-78
2019-01-27T04:43:00.933Z,-77
2019-01-27T04:45:34.421Z,-78
2019-01-27T04:48:03.580Z,-78
2019-01-27T04:50:32.658Z,-79
2019-01-27T04:53:01.744Z,-77
2019-01-27T04:55:30.868Z,-73
2019-01-27T04:58:00.227Z,-78
2019-01-27T05:00:29.476Z,-77
2019-01-27T05:03:00.452Z,-81
2019-01-27T05:05:29.816Z,-78
2019-01-27T05:07:58.884Z,-78
2019-01-27T05:10:28.255Z,-77
2019-01-27T05:12:57.327Z,-78
2019-01-27T05:15:31.272Z,-78
2019-01-27T05:18:00.624Z,-76
2019-01-27T05:20:29.733Z,-76
2019-01-27T05:22:59.069Z,-76
2019-01-27T05:25:28.187Z,-76
2019-01-27T05:27:57.269Z,-77
2019-01-27T05:30:27.907Z,-77
2019-01-27T05:32:57.331Z,-76
2019-01-27T05:35:26.428Z,-76
2019-01-27T05:37:55.541Z,-77
2019-01-27T05:40:24.910Z,-77
2019-01-27T05:42:53.980Z,-77
2019-01-27T05:45:23.871Z,-79
2019-01-27T05:47:53.259Z,-77
2019-01-27T05:50:22.723Z,-76
2019-01-27T05:52:51.797Z,-76
2019-01-27T05:55:21.812Z,-78
2019-01-27T05:57:51.121Z,-78
2019-01-27T06:00:29.657Z,-81
2019-01-27T06:02:58.729Z,-78
2019-01-27T06:05:28.090Z,-80
2019-01-27T06:07:57.197Z,-79
2019-01-27T06:10:26.312Z,-75
2019-01-27T06:12:55.405Z,-76
2019-01-27T06:15:24.783Z,-81
2019-01-27T06:17:53.902Z,-77
2019-01-27T06:20:23.423Z,-78
2019-01-27T06:22:52.488Z,-76
2019-01-27T06:25:21.931Z,-77
2019-01-27T06:27:51.049Z,-75
2019-01-27T06:30:28.736Z,-76
2019-01-27T06:33:08.978Z,-76
2019-01-27T06:35:39.158Z,-78
2019-01-27T06:38:08.252Z,-77
2019-01-27T06:40:37.357Z,-76
2019-01-27T06:43:06.470Z,-78
2019-01-27T06:45:35.581Z,-76
2019-01-27T06:48:05.409Z,-77
2019-01-27T06:50:34.756Z,-77
2019-01-27T06:53:04.326Z,-78
2019-01-27T06:55:33.439Z,-78
2019-01-27T06:58:03.058Z,-78
2019-01-27T07:00:36.628Z,-77
2019-01-27T07:03:19.857Z,-77
2019-01-27T07:06:02.821Z,-77
2019-01-27T07:08:33.562Z,-77
2019-01-27T07:11:04.534Z,-77
2019-01-27T07:13:44.009Z,-79
2019-01-27T07:16:30.984Z,-80
2019-01-27T07:19:10.730Z,-78
2019-01-27T07:21:56.246Z,-78
2019-01-27T07:24:27.000Z,-78
2019-01-27T07:27:17.699Z,-77
2019-01-27T07:29:51.355Z,-78
2019-01-27T07:32:38.358Z,-77
2019-01-27T07:35:12.673Z,-77
2019-01-27T07:37:43.687Z,-78
2019-01-27T07:40:16.938Z,-78
2019-01-27T07:42:48.353Z,-80
2019-01-27T07:45:19.188Z,-77
2019-01-27T07:47:49.987Z,-78
2019-01-27T07:50:29.320Z,-79
2019-01-27T07:53:06.192Z,-78
2019-01-27T07:55:39.880Z,-77
2019-01-27T07:58:20.021Z,-77
2019-01-27T08:01:03.351Z,-77
2019-01-27T08:03:49.723Z,-77
2019-01-27T08:06:20.702Z,-78
2019-01-27T08:08:51.898Z,-78
2019-01-27T08:11:22.878Z,-78
2019-01-27T08:13:55.295Z,-78
2019-01-27T08:16:26.653Z,-78
2019-01-27T08:19:00.888Z,-76
2019-01-27T08:21:39.511Z,-80
2019-01-27T08:24:11.688Z,-77
2019-01-27T08:26:48.748Z,-78
2019-01-27T08:29:27.012Z,-78
2019-01-27T08:32:12.750Z,-78
2019-01-27T08:34:43.602Z,-78
2019-01-27T08:37:32.948Z,-77
2019-01-27T08:40:03.748Z,-77
2019-01-27T08:42:39.507Z,-78
2019-01-27T08:45:15.709Z,-78
2019-01-27T08:47:45.036Z,-78
2019-01-27T08:50:15.824Z,-79
2019-01-27T08:52:44.980Z,-78
2019-01-27T08:55:14.468Z,-79
2019-01-27T08:57:43.648Z,-78
2019-01-27T09:00:20.872Z,-77
2019-01-27T09:03:09.858Z,-77
2019-01-27T09:05:40.881Z,-78
2019-01-27T09:08:14.449Z,-78
2019-01-27T09:11:00.831Z,-77
2019-01-27T09:13:40.551Z,-78
2019-01-27T09:16:29.625Z,-78
2019-01-27T09:19:17.079Z,-79
2019-01-27T09:21:57.595Z,-79
2019-01-27T09:24:28.492Z,-79
2019-01-27T09:26:59.607Z,-78
2019-01-27T09:29:33.115Z,-78
2019-01-27T09:32:13.159Z,-78
2019-01-27T09:34:44.289Z,-78
2019-01-27T09:37:20.889Z,-79
2019-01-27T09:40:00.869Z,-78
2019-01-27T09:42:34.160Z,-78
2019-01-27T09:45:05.467Z,-76
2019-01-27T09:47:52.772Z,-78
2019-01-27T09:50:23.679Z,-78
2019-01-27T09:53:00.220Z,-79
2019-01-27T09:55:30.976Z,-78
2019-01-27T09:58:18.549Z,-78
2019-01-27T10:00:49.334Z,-78
2019-01-27T10:03:20.483Z,-78
2019-01-27T10:05:53.814Z,-78
2019-01-27T10:08:27.866Z,-77
2019-01-27T10:11:07.818Z,-79
2019-01-27T10:13:44.888Z,-78
2019-01-27T10:16:31.721Z,-78
2019-01-27T10:19:19.034Z,-79
2019-01-27T10:21:52.730Z,-79
2019-01-27T10:24:26.350Z,-79
2019-01-27T10:27:03.143Z,-79
2019-01-27T10:29:39.608Z,-79
2019-01-27T10:32:13.619Z,-79
2019-01-27T10:34:47.132Z,-79
2019-01-27T10:37:26.842Z,-79
2019-01-27T10:39:57.954Z,-80
2019-01-27T10:42:29.212Z,-80
2019-01-27T10:45:00.136Z,-80
2019-01-27T10:47:31.168Z,-78
2019-01-27T10:50:04.718Z,-79
2019-01-27T10:52:44.282Z,-79
2019-01-27T10:55:15.580Z,-79
2019-01-27T10:58:04.500Z,-80
2019-01-27T11:00:53.377Z,-78
2019-01-27T11:06:33.638Z,-77
2019-01-27T11:09:07.120Z,-79
2019-01-27T11:11:38.266Z,-79
2019-01-27T11:14:14.465Z,-79
2019-01-27T11:16:50.969Z,-77
2019-01-27T11:19:21.717Z,-77
2019-01-27T11:21:52.453Z,-76
2019-01-27T11:24:32.057Z,-79
2019-01-27T11:27:08.318Z,-76
2019-01-27T11:29:50.793Z,-78
2019-01-27T11:32:33.663Z,-77
2019-01-27T11:35:06.809Z,-78
2019-01-27T11:37:46.531Z,-79
2019-01-27T11:40:25.951Z,-80
2019-01-27T11:42:56.721Z,-78
2019-01-27T11:45:27.435Z,-78
2019-01-27T11:48:16.250Z,-78
2019-01-27T11:50:47.223Z,-77
2019-01-27T11:53:16.297Z,-79
2019-01-27T11:55:45.926Z,-79
2019-01-27T11:58:16.538Z,-79
2019-01-27T12:00:50.357Z,-78
2019-01-27T12:03:20.135Z,-78
2019-01-27T12:05:49.936Z,-78
2019-01-27T12:08:19.596Z,-79
2019-01-27T12:10:49.139Z,-78
2019-01-27T12:13:18.539Z,-78
2019-01-27T12:15:47.754Z,-77
2019-01-27T12:18:18.635Z,-78
2019-01-27T12:20:47.971Z,-78
2019-01-27T12:23:17.076Z,-78
2019-01-27T12:25:48.516Z,-78
2019-01-27T12:28:19.345Z,-78
2019-01-27T12:30:48.854Z,-78
2019-01-27T12:33:18.452Z,-78
2019-01-27T12:35:49.602Z,-78
2019-01-27T12:38:19.021Z,-77
2019-01-27T12:40:48.507Z,-78
2019-01-27T12:43:17.908Z,-78
2019-01-27T12:45:46.976Z,-77
2019-01-27T12:48:16.385Z,-78
2019-01-27T12:50:45.748Z,-78
2019-01-27T12:53:15.118Z,-77
2019-01-27T12:55:44.516Z,-77
2019-01-27T12:58:13.776Z,-78
2019-01-27T13:00:52.388Z,-78
2019-01-27T13:03:21.807Z,-79
2019-01-27T13:05:53.008Z,-79
2019-01-27T13:08:25.899Z,-79
2019-01-27T13:10:55.316Z,-79
2019-01-27T13:13:24.760Z,-79
2019-01-27T13:15:54.040Z,-79
2019-01-27T13:18:44.114Z,-79
2019-01-27T13:21:13.597Z,-79
2019-01-27T13:23:42.856Z,-79
2019-01-27T13:26:12.255Z,-79
2019-01-27T13:29:00.814Z,-79
2019-01-27T13:31:36.578Z,-78
2019-01-27T13:34:06.475Z,-78
2019-01-27T13:36:35.897Z,-78
2019-01-27T13:39:07.034Z,-78
2019-01-27T13:41:36.348Z,-78
2019-01-27T13:44:05.425Z,-77
2019-01-27T13:46:34.617Z,-76
2019-01-27T13:49:03.731Z,-78
2019-01-27T13:51:32.823Z,-77
2019-01-27T13:54:02.181Z,-77
2019-01-27T13:56:31.587Z,-78
2019-01-27T13:59:00.705Z,-75
2019-01-27T14:01:30.070Z,-78
2019-01-27T14:03:59.289Z,-77
2019-01-27T14:06:28.520Z,-77
2019-01-27T14:08:57.854Z,-77
2019-01-27T14:11:26.963Z,-77
2019-01-27T14:13:56.311Z,-77
2019-01-27T14:16:25.431Z,-77
2019-01-27T14:18:54.511Z,-77
2019-01-27T14:21:23.623Z,-77
2019-01-27T14:23:52.725Z,-77
2019-01-27T14:26:22.058Z,-78
2019-01-27T14:28:51.395Z,-77
2019-01-27T14:31:20.724Z,-77
2019-01-27T14:33:49.976Z,-78
2019-01-27T14:36:19.550Z,-78
2019-01-27T14:38:56.431Z,-78
2019-01-27T14:41:27.381Z,-79
2019-01-27T14:44:02.788Z,-79
2019-01-27T14:46:32.353Z,-79
2019-01-27T14:49:03.575Z,-78
2019-01-27T14:51:33.149Z,-80
2019-01-27T14:54:16.285Z,-79
2019-01-27T14:56:45.075Z,-78
2019-01-27T14:59:14.846Z,-78
2019-01-27T15:01:50.696Z,-78
2019-01-27T15:04:22.892Z,-78
2019-01-27T15:07:14.016Z,-80
2019-01-27T15:09:49.254Z,-79
2019-01-27T15:12:19.071Z,-78
2019-01-27T15:14:50.455Z,-78
2019-01-27T15:17:27.482Z,-78
2019-01-27T15:19:55.859Z,-78
2019-01-27T15:22:28.434Z,-78
2019-01-27T15:25:01.253Z,-78
2019-01-27T15:27:36.938Z,-78
2019-01-27T15:30:26.515Z,-78
2019-01-27T15:33:01.752Z,-78
2019-01-27T15:35:31.586Z,-79
2019-01-27T15:38:04.613Z,-79
2019-01-27T15:40:39.897Z,-79
2019-01-27T15:43:15.677Z,-79
2019-01-27T15:45:53.894Z,-79
2019-01-27T15:48:23.483Z,-78
2019-01-27T15:51:04.124Z,-79
2019-01-27T15:53:44.607Z,-78
2019-01-27T15:59:14.032Z,-78
2019-01-27T16:01:55.258Z,-79
2019-01-27T16:04:44.248Z,-78
2019-01-27T16:07:15.482Z,-80
2019-01-27T16:09:45.105Z,-78
2019-01-27T16:12:22.196Z,-78
2019-01-27T16:14:55.340Z,-78
2019-01-27T16:17:26.392Z,-78
2019-01-27T16:19:58.487Z,-78
2019-01-27T16:22:28.059Z,-77
2019-01-27T16:24:57.765Z,-77
2019-01-27T16:27:26.979Z,-75
2019-01-27T16:29:57.932Z,-76
2019-01-27T16:32:32.654Z,-77
2019-01-27T16:35:02.321Z,-76
2019-01-27T16:37:31.858Z,-76
2019-01-27T16:40:01.256Z,-76
2019-01-27T16:42:30.458Z,-76
2019-01-27T16:44:59.603Z,-76
2019-01-27T16:47:30.418Z,-77
2019-01-27T16:49:59.950Z,-77
2019-01-27T16:52:29.290Z,-77
2019-01-27T16:55:01.435Z,-76
2019-01-27T16:57:30.737Z,-76
2019-01-27T17:00:00.273Z,-77
2019-01-27T17:02:29.678Z,-76
2019-01-27T17:04:58.932Z,-77
2019-01-27T17:07:28.493Z,-77
2019-01-27T17:09:58.013Z,-77
2019-01-27T17:12:27.466Z,-77
2019-01-27T17:14:57.060Z,-77
2019-01-27T17:17:26.425Z,-77
2019-01-27T17:20:02.516Z,-77
2019-01-27T17:22:30.751Z,-76
2019-01-27T17:24:59.358Z,-77
2019-01-27T17:27:29.014Z,-77
2019-01-27T17:29:59.712Z,-77
2019-01-27T17:32:29.316Z,-77
2019-01-27T17:34:58.817Z,-76
2019-01-27T17:37:28.247Z,-77
2019-01-27T17:39:57.686Z,-78
2019-01-27T17:42:27.419Z,-78
2019-01-27T17:44:58.635Z,-79
2019-01-27T17:47:35.338Z,-80
2019-01-27T17:53:02.700Z,-78
2019-01-27T17:55:42.496Z,-77
2019-01-27T17:58:42.600Z,-77
2019-01-27T18:04:06.242Z,-77
2019-01-27T18:06:41.740Z,-77
2019-01-27T18:09:17.381Z,-78
2019-01-27T18:11:49.560Z,-77
2019-01-27T18:14:20.609Z,-78
2019-01-27T18:16:50.064Z,-77
2019-01-27T18:19:19.305Z,-75
2019-01-27T18:21:48.633Z,-76
2019-01-27T18:27:08.803Z,-77
2019-01-27T18:29:38.043Z,-77
2019-01-27T18:32:07.458Z,-77
2019-01-27T18:34:37.982Z,-77
2019-01-27T18:37:10.295Z,-77
2019-01-27T18:39:39.731Z,-77
2019-01-27T18:42:09.704Z,-77
2019-01-27T18:44:39.587Z,-78
2019-01-27T18:47:11.182Z,-76
2019-01-27T18:49:40.852Z,-77
2019-01-27T18:52:11.720Z,-77
2019-01-27T18:54:48.244Z,-79
2019-01-27T18:57:19.258Z,-77
2019-01-27T19:00:00.314Z,-78
2019-01-27T19:02:34.273Z,-77
2019-01-27T19:05:21.910Z,-77
2019-01-27T19:07:58.573Z,-78
2019-01-27T19:10:29.444Z,-77
2019-01-27T19:13:04.831Z,-78
2019-01-27T19:15:38.578Z,-77
2019-01-27T19:18:10.105Z,-77
2019-01-27T19:20:58.963Z,-77
2019-01-27T19:23:32.920Z,-77
2019-01-27T19:26:09.600Z,-78
2019-01-27T19:28:45.058Z,-77
2019-01-27T19:31:21.975Z,-78
2019-01-27T19:33:59.152Z,-78
2019-01-27T19:36:36.100Z,-77
2019-01-27T19:39:28.612Z,-77
2019-01-27T19:42:05.893Z,-69
2019-01-27T19:44:42.993Z,-70
2019-01-27T19:47:14.330Z,-69
2019-01-27T19:49:57.466Z,-71
2019-01-27T19:52:40.755Z,-70
2019-01-27T19:55:38.897Z,-69
2019-01-27T19:58:19.124Z,-70
2019-01-27T20:00:52.972Z,-69
2019-01-27T20:03:33.485Z,-69
2019-01-27T20:06:10.746Z,-69
2019-01-27T20:08:41.994Z,-70
2019-01-27T20:14:02.640Z,-70
2019-01-27T20:16:36.449Z,-70
2019-01-27T20:19:13.116Z,-71
2019-01-27T20:21:44.414Z,-71
2019-01-27T20:24:17.890Z,-70
2019-01-27T20:26:49.302Z,-71
2019-01-27T20:29:23.198Z,-70
2019-01-27T20:32:00.258Z,-70
2019-01-27T20:34:45.986Z,-70
2019-01-27T20:37:16.870Z,-70
2019-01-27T20:39:50.551Z,-70
2019-01-27T20:42:24.657Z,-72
2019-01-27T20:44:59.487Z,-71
2019-01-27T20:47:40.163Z,-70
2019-01-27T20:50:28.957Z,-70
2019-01-27T20:53:00.099Z,-70
2019-01-27T20:55:36.644Z,-73
2019-01-27T20:58:19.496Z,-73
2019-01-27T21:01:05.912Z,-72
2019-01-27T21:03:40.190Z,-71
2019-01-27T21:06:20.250Z,-71
2019-01-27T21:08:58.779Z,-71
2019-01-27T21:11:30.350Z,-71
2019-01-27T21:14:12.952Z,-70
2019-01-27T21:16:47.049Z,-70
2019-01-27T21:19:18.260Z,-69
2019-01-27T21:21:48.327Z,-69
2019-01-27T21:24:23.929Z,-69
2019-01-27T21:26:49.214Z,-69
2019-01-27T21:29:18.919Z,-69
2019-01-27T21:31:48.363Z,-70
2019-01-27T21:34:17.875Z,-70
2019-01-27T21:36:47.397Z,-70
2019-01-27T21:39:17.382Z,-69
2019-01-27T21:41:47.207Z,-69
2019-01-27T21:44:27.313Z,-70
2019-01-27T21:46:56.839Z,-69
2019-01-27T21:49:26.257Z,-70
2019-01-27T21:51:55.512Z,-70
2019-01-27T21:54:24.817Z,-70
2019-01-27T21:56:54.076Z,-70
2019-01-27T21:59:23.499Z,-70
2019-01-27T22:01:52.893Z,-70
2019-01-27T22:04:22.158Z,-70
2019-01-27T22:06:51.604Z,-70
2019-01-27T22:09:21.096Z,-70
2019-01-27T22:11:50.406Z,-71
2019-01-27T22:14:19.929Z,-71
2019-01-27T22:16:50.325Z,-72
2019-01-27T22:19:19.915Z,-71
2019-01-27T22:21:49.171Z,-70
2019-01-27T22:24:18.905Z,-71
2019-01-27T22:26:48.402Z,-72
2019-01-27T22:29:17.908Z,-71
2019-01-27T22:31:47.259Z,-71
2019-01-27T22:34:16.580Z,-71
2019-01-27T22:36:55.075Z,-71
2019-01-27T22:39:24.627Z,-71
2019-01-27T22:41:54.151Z,-71
2019-01-27T22:44:23.514Z,-71
2019-01-27T22:46:53.005Z,-78
2019-01-27T22:49:22.356Z,-77
2019-01-27T22:51:51.530Z,-78
2019-01-27T22:54:20.733Z,-81
2019-01-27T22:56:50.086Z,-77
2019-01-27T22:59:19.189Z,-77
2019-01-27T23:01:48.269Z,-80
2019-01-27T23:04:17.374Z,-77
2019-01-27T23:06:46.761Z,-77
2019-01-27T23:09:17.683Z,-77
2019-01-27T23:11:47.035Z,-77
2019-01-27T23:14:16.393Z,-77
2019-01-27T23:16:45.485Z,-77
2019-01-27T23:19:14.820Z,-77
2019-01-27T23:21:43.938Z,-77
2019-01-27T23:24:13.292Z,-77
2019-01-27T23:26:42.425Z,-77
2019-01-27T23:29:11.543Z,-77
2019-01-27T23:31:40.920Z,-79
2019-01-27T23:34:10.018Z,-77
2019-01-27T23:36:39.398Z,-77
2019-01-27T23:39:10.065Z,-77
2019-01-27T23:41:40.061Z,-77
2019-01-27T23:44:09.488Z,-80
2019-01-27T23:46:38.584Z,-77
2019-01-27T23:49:07.993Z,-79
2019-01-27T23:51:37.312Z,-77
2019-01-27T23:54:06.490Z,-74
2019-01-27T23:56:35.823Z,-76
2019-01-27T23:59:05.441Z,-76
